createdAt,value
2023-04-19T00:00:12.220Z,100397.72
2023-04-19T00:00:54.109Z,100398.03
2023-04-19T00:01:35.839Z,100398.03
2023-04-19T00:02:18.535Z,100404.34
2023-04-19T00:03:01.148Z,100394.25
2023-04-19T00:03:43.210Z,100377.31
2023-04-19T00:04:25.488Z,100399.38
2023-04-19T00:05:07.938Z,100403.84
2023-04-19T00:05:49.583Z,100392.41
2023-04-19T00:06:31.852Z,100366.88
2023-04-19T00:07:13.568Z,100403.50
2023-04-19T00:07:55.365Z,100399.22
2023-04-19T00:08:37.005Z,100394.06
2023-04-19T00:09:18.708Z,100384.13
2023-04-19T00:10:00.519Z,100386.63
2023-04-19T00:10:42.204Z,100400.53
2023-04-19T00:11:24.649Z,100386.78
2023-04-19T00:12:06.404Z,100390.63
2023-04-19T00:12:48.056Z,100396.06
2023-04-19T00:13:29.675Z,100391.75
2023-04-19T00:14:11.428Z,100396.22
2023-04-19T00:14:53.137Z,100390.78
2023-04-19T00:15:35.068Z,100390.78
2023-04-19T00:16:17.234Z,100375.66
2023-04-19T00:16:59.008Z,100396.06
2023-04-19T00:17:40.933Z,100388.13
2023-04-19T00:18:22.696Z,100381.34
2023-04-19T00:19:04.398Z,100384.31
2023-04-19T00:19:46.136Z,100386.97
2023-04-19T00:20:27.803Z,100388.91
2023-04-19T00:21:09.545Z,100388.09
2023-04-19T00:21:51.290Z,100375.19
2023-04-19T00:22:32.922Z,100389.59
2023-04-19T00:23:14.563Z,100385.13
2023-04-19T00:23:56.255Z,100381.94
2023-04-19T00:24:37.850Z,100384.81
2023-04-19T00:25:19.541Z,100385.47
2023-04-19T00:26:04.652Z,100392.25
2023-04-19T00:26:46.302Z,100382.47
2023-04-19T00:27:28.139Z,100385.31
2023-04-19T00:28:09.825Z,100384.97
2023-04-19T00:28:51.553Z,100382.47
2023-04-19T00:29:33.209Z,100389.25
2023-04-19T00:30:14.877Z,100384.47
2023-04-19T00:30:57.317Z,100368.91
2023-04-19T00:31:39.950Z,100378.00
2023-04-19T00:32:21.715Z,100382.97
2023-04-19T00:33:03.682Z,100373.38
2023-04-19T00:33:45.450Z,100383.81
2023-04-19T00:34:27.166Z,100375.19
2023-04-19T00:35:10.915Z,100385.97
2023-04-19T00:35:52.613Z,100386.78
2023-04-19T00:36:38.364Z,100377.31
2023-04-19T00:37:21.741Z,100376.66
2023-04-19T00:38:03.471Z,100373.03
2023-04-19T00:38:45.125Z,100354.31
2023-04-19T00:39:26.813Z,100371.19
2023-04-19T00:40:09.218Z,100380.97
2023-04-19T00:40:51.812Z,100383.47
2023-04-19T00:41:33.542Z,100374.00
2023-04-19T00:42:15.326Z,100376.03
2023-04-19T00:42:57.004Z,100372.34
2023-04-19T00:43:39.040Z,100371.72
2023-04-19T00:44:21.668Z,100365.09
2023-04-19T00:45:03.758Z,100364.91
2023-04-19T00:45:49.743Z,100365.06
2023-04-19T00:46:31.705Z,100376.34
2023-04-19T00:47:14.724Z,100372.19
2023-04-19T00:47:56.559Z,100371.19
2023-04-19T00:48:38.536Z,100357.31
2023-04-19T00:49:22.432Z,100366.41
2023-04-19T00:50:05.917Z,100364.25
2023-04-19T00:50:47.864Z,100329.84
2023-04-19T00:51:29.867Z,100365.91
2023-04-19T00:52:12.748Z,100372.19
2023-04-19T00:52:56.215Z,100359.31
2023-04-19T00:53:40.624Z,100373.00
2023-04-19T00:54:23.347Z,100370.38
2023-04-19T00:55:05.643Z,100340.25
2023-04-19T00:55:47.792Z,100368.25
2023-04-19T00:56:30.330Z,100354.84
2023-04-19T00:57:12.246Z,100368.88
2023-04-19T00:57:54.400Z,100360.78
2023-04-19T00:58:38.577Z,100355.50
2023-04-19T00:59:20.305Z,100367.72
2023-04-19T01:00:02.472Z,100371.72
2023-04-19T01:00:45.937Z,100364.75
2023-04-19T01:01:27.858Z,100363.25
2023-04-19T01:02:10.186Z,100352.34
2023-04-19T01:02:52.473Z,100365.06
2023-04-19T01:03:35.059Z,100350.34
2023-04-19T01:04:17.453Z,100326.88
2023-04-19T01:05:01.965Z,100365.25
2023-04-19T01:05:43.623Z,100357.47
2023-04-19T01:06:29.976Z,100358.78
2023-04-19T01:07:11.624Z,100371.88
2023-04-19T01:07:53.299Z,100353.16
2023-04-19T01:08:37.469Z,100290.16
2023-04-19T01:09:19.097Z,100355.31
2023-04-19T01:10:00.833Z,100353.50
2023-04-19T01:10:42.409Z,100358.94
2023-04-19T01:11:24.754Z,100354.63
2023-04-19T01:12:06.369Z,100227.47
2023-04-19T01:12:47.956Z,100346.88
2023-04-19T01:13:29.637Z,100319.91
2023-04-19T01:14:11.289Z,100347.69
2023-04-19T01:14:53.023Z,100329.00
2023-04-19T01:15:35.852Z,100350.03
2023-04-19T01:16:17.673Z,100351.69
2023-04-19T01:16:59.283Z,100344.72
2023-04-19T01:17:42.193Z,100345.06
2023-04-19T01:18:29.322Z,100349.69
2023-04-19T01:19:11.656Z,100350.50
2023-04-19T01:20:03.821Z,100352.34
2023-04-19T01:20:45.612Z,100352.50
2023-04-19T01:21:29.350Z,100350.38
2023-04-19T01:22:16.659Z,100345.41
2023-04-19T01:22:58.332Z,100355.13
2023-04-19T01:23:40.372Z,100354.16
2023-04-19T01:24:22.050Z,100351.66
2023-04-19T01:25:05.284Z,100359.63
2023-04-19T01:25:47.666Z,100359.31
2023-04-19T01:26:29.303Z,100351.50
2023-04-19T01:27:11.427Z,100354.63
2023-04-19T01:27:53.072Z,100364.25
2023-04-19T01:28:34.752Z,100362.41
2023-04-19T01:29:17.721Z,100346.38
2023-04-19T01:30:00.938Z,100361.44
2023-04-19T01:30:42.968Z,100366.72
2023-04-19T01:31:24.611Z,100357.00
2023-04-19T01:32:06.203Z,100362.94
2023-04-19T01:32:47.858Z,100366.44
2023-04-19T01:33:29.642Z,100342.56
2023-04-19T01:34:11.374Z,100273.25
2023-04-19T01:34:53.593Z,100320.56
2023-04-19T01:35:35.260Z,100352.97
2023-04-19T01:36:16.861Z,100330.47
2023-04-19T01:36:58.448Z,100354.34
2023-04-19T01:37:40.161Z,100275.56
2023-04-19T01:38:24.874Z,100299.03
2023-04-19T01:39:06.499Z,100314.59
2023-04-19T01:39:48.107Z,100358.00
2023-04-19T01:40:29.701Z,100346.06
2023-04-19T01:41:12.657Z,100353.03
2023-04-19T01:41:54.426Z,100348.72
2023-04-19T01:42:36.012Z,100352.53
2023-04-19T01:43:18.799Z,100363.41
2023-04-19T01:44:00.946Z,100293.78
2023-04-19T01:44:42.627Z,100352.81
2023-04-19T01:45:24.349Z,100329.47
2023-04-19T01:46:06.078Z,100285.69
2023-04-19T01:46:47.707Z,100349.69
2023-04-19T01:47:29.412Z,100338.94
2023-04-19T01:48:13.589Z,100328.84
2023-04-19T01:48:55.218Z,100350.00
2023-04-19T01:49:37.058Z,100347.69
2023-04-19T01:50:18.813Z,100347.53
2023-04-19T01:51:00.529Z,100333.47
2023-04-19T01:51:42.166Z,100322.72
2023-04-19T01:52:23.719Z,100358.31
2023-04-19T01:53:05.368Z,100351.03
2023-04-19T01:53:53.358Z,100345.75
2023-04-19T01:54:34.965Z,100352.34
2023-04-19T01:55:16.620Z,100331.63
2023-04-19T01:55:58.269Z,100343.09
2023-04-19T01:56:41.263Z,100341.25
2023-04-19T01:57:22.901Z,100352.19
2023-04-19T01:58:04.538Z,100343.59
2023-04-19T01:58:46.174Z,100332.47
2023-04-19T01:59:28.183Z,100350.53
2023-04-19T02:00:12.827Z,100340.75
2023-04-19T02:00:57.181Z,100346.38
2023-04-19T02:01:38.924Z,100347.19
2023-04-19T02:02:20.632Z,100323.22
2023-04-19T02:03:02.626Z,100330.31
2023-04-19T02:03:44.787Z,100325.34
2023-04-19T02:04:26.540Z,100340.09
2023-04-19T02:05:08.894Z,100323.88
2023-04-19T02:05:50.574Z,100345.25
2023-04-19T02:06:32.191Z,100343.75
2023-04-19T02:07:13.835Z,100321.06
2023-04-19T02:07:55.593Z,100326.19
2023-04-19T02:08:37.264Z,100260.53
2023-04-19T02:09:19.339Z,100331.47
2023-04-19T02:10:01.704Z,100335.47
2023-04-19T02:10:43.437Z,100333.66
2023-04-19T02:11:25.089Z,100274.91
2023-04-19T02:12:06.946Z,100310.47
2023-04-19T02:12:48.577Z,100335.97
2023-04-19T02:13:30.920Z,100327.69
2023-04-19T02:14:12.900Z,100329.69
2023-04-19T02:14:58.130Z,100318.91
2023-04-19T02:15:46.016Z,100328.03
2023-04-19T02:16:27.763Z,100329.00
2023-04-19T02:17:09.420Z,100297.53
2023-04-19T02:17:51.035Z,100310.28
2023-04-19T02:18:40.671Z,100318.59
2023-04-19T02:19:22.464Z,100324.38
2023-04-19T02:20:05.848Z,100302.03
2023-04-19T02:20:47.503Z,100325.50
2023-04-19T02:21:29.372Z,100285.13
2023-04-19T02:22:10.990Z,100302.03
2023-04-19T02:22:54.264Z,100329.16
2023-04-19T02:23:36.358Z,100323.84
2023-04-19T02:24:18.057Z,100326.84
2023-04-19T02:25:00.870Z,100327.81
2023-04-19T02:25:46.859Z,100326.34
2023-04-19T02:26:29.546Z,100317.72
2023-04-19T02:27:11.531Z,100306.50
2023-04-19T02:27:53.764Z,100307.66
2023-04-19T02:28:35.748Z,100320.22
2023-04-19T02:29:17.980Z,100320.22
2023-04-19T02:29:59.665Z,100321.88
2023-04-19T02:30:41.299Z,100308.47
2023-04-19T02:31:23.311Z,100321.88
2023-04-19T02:32:06.968Z,100304.84
2023-04-19T02:32:49.472Z,100312.25
2023-04-19T02:33:31.173Z,100319.88
2023-04-19T02:34:15.690Z,100303.69
2023-04-19T02:34:57.453Z,100319.88
2023-04-19T02:35:39.110Z,100307.31
2023-04-19T02:36:21.290Z,100308.47
2023-04-19T02:37:03.457Z,100321.84
2023-04-19T02:37:45.311Z,100317.75
2023-04-19T02:38:26.912Z,100320.56
2023-04-19T02:39:08.872Z,100323.22
2023-04-19T02:39:53.491Z,100312.94
2023-04-19T02:40:35.971Z,100320.19
2023-04-19T02:41:17.774Z,100320.88
2023-04-19T02:41:59.436Z,100295.06
2023-04-19T02:42:41.704Z,100311.63
2023-04-19T02:43:23.346Z,100321.41
2023-04-19T02:44:05.491Z,100306.97
2023-04-19T02:44:47.056Z,100314.28
2023-04-19T02:45:29.742Z,100319.41
2023-04-19T02:46:11.408Z,100321.91
2023-04-19T02:46:53.800Z,100321.06
2023-04-19T02:47:35.713Z,100323.56
2023-04-19T02:48:17.474Z,100315.09
2023-04-19T02:49:00.808Z,100327.50
2023-04-19T02:49:42.690Z,100244.94
2023-04-19T02:50:30.060Z,100320.38
2023-04-19T02:51:17.774Z,100321.38
2023-04-19T02:51:59.530Z,100328.66
2023-04-19T02:52:41.158Z,100307.16
2023-04-19T02:53:22.831Z,100329.84
2023-04-19T02:54:05.460Z,100309.97
2023-04-19T02:54:47.307Z,100187.25
2023-04-19T02:55:28.992Z,100315.91
2023-04-19T02:56:20.013Z,100329.81
2023-04-19T02:57:02.075Z,100327.16
2023-04-19T02:57:43.715Z,100327.50
2023-04-19T02:58:26.831Z,100310.78
2023-04-19T02:59:14.436Z,100298.22
2023-04-19T02:59:56.744Z,100322.38
2023-04-19T03:00:38.439Z,100307.16
2023-04-19T03:01:24.970Z,100321.88
2023-04-19T03:02:06.615Z,100319.41
2023-04-19T03:02:48.459Z,100312.97
2023-04-19T03:03:30.402Z,100316.59
2023-04-19T03:04:13.030Z,100323.72
2023-04-19T03:04:55.466Z,100314.28
2023-04-19T03:05:37.115Z,100321.22
2023-04-19T03:06:18.895Z,100322.72
2023-04-19T03:07:00.508Z,100319.06
2023-04-19T03:07:44.458Z,100318.25
2023-04-19T03:08:26.462Z,100314.59
2023-04-19T03:09:08.023Z,100299.22
2023-04-19T03:09:49.662Z,100313.59
2023-04-19T03:10:33.005Z,100299.38
2023-04-19T03:11:16.416Z,100316.59
2023-04-19T03:11:58.051Z,100316.41
2023-04-19T03:12:39.708Z,100283.66
2023-04-19T03:13:21.349Z,100297.56
2023-04-19T03:14:03.210Z,100279.69
2023-04-19T03:14:45.284Z,100313.28
2023-04-19T03:15:27.264Z,100308.31
2023-04-19T03:16:09.603Z,100287.13
2023-04-19T03:16:52.214Z,100307.66
2023-04-19T03:17:33.963Z,100310.31
2023-04-19T03:18:17.238Z,100312.13
2023-04-19T03:18:58.896Z,100315.75
2023-04-19T03:19:44.248Z,100307.34
2023-04-19T03:20:26.675Z,100312.31
2023-04-19T03:21:09.513Z,100293.13
2023-04-19T03:22:05.758Z,100308.69
2023-04-19T03:22:49.230Z,100309.00
2023-04-19T03:23:31.024Z,100266.34
2023-04-19T03:24:15.130Z,100303.03
2023-04-19T03:25:02.309Z,100278.06
2023-04-19T03:25:44.316Z,100304.34
2023-04-19T03:26:38.143Z,100315.94
2023-04-19T03:27:19.856Z,100299.75
2023-04-19T03:28:06.008Z,100302.53
2023-04-19T03:29:14.267Z,100299.06
2023-04-19T03:30:11.528Z,100309.31
2023-04-19T03:30:55.856Z,100307.66
2023-04-19T03:31:37.627Z,100300.25
2023-04-19T03:32:19.484Z,100253.72
2023-04-19T03:33:01.368Z,100233.75
2023-04-19T03:33:43.139Z,100270.28
2023-04-19T03:34:27.140Z,100306.00
2023-04-19T03:35:09.860Z,100297.09
2023-04-19T03:35:51.441Z,100277.75
2023-04-19T03:36:32.990Z,100303.53
2023-04-19T03:37:14.597Z,100209.41
2023-04-19T03:37:57.120Z,100278.22
2023-04-19T03:38:38.783Z,100300.06
2023-04-19T03:39:23.953Z,100290.97
2023-04-19T03:40:10.434Z,100296.06
2023-04-19T03:40:56.366Z,100291.97
2023-04-19T03:41:40.178Z,100298.91
2023-04-19T03:42:42.082Z,100223.81
2023-04-19T03:43:32.768Z,100271.44
2023-04-19T03:44:14.650Z,100288.47
2023-04-19T03:44:58.890Z,100294.75
2023-04-19T03:45:42.011Z,100283.19
2023-04-19T03:46:24.423Z,100292.13
2023-04-19T03:47:06.160Z,100291.13
2023-04-19T03:47:54.524Z,100288.31
2023-04-19T03:48:36.243Z,100290.81
2023-04-19T03:49:17.919Z,100287.66
2023-04-19T03:50:04.546Z,100289.97
2023-04-19T03:50:47.953Z,100296.56
2023-04-19T03:51:32.189Z,100276.91
2023-04-19T03:52:13.766Z,100290.13
2023-04-19T03:52:55.863Z,100283.84
2023-04-19T03:53:37.556Z,100283.03
2023-04-19T03:54:19.573Z,100285.66
2023-04-19T03:55:01.225Z,100270.78
2023-04-19T03:55:54.055Z,100282.88
2023-04-19T03:56:36.539Z,100284.53
2023-04-19T03:57:18.475Z,100272.44
2023-04-19T03:58:00.115Z,100282.72
2023-04-19T03:58:59.186Z,100286.50
2023-04-19T03:59:41.986Z,100277.06
2023-04-19T04:00:24.495Z,100287.81
2023-04-19T04:01:21.290Z,100290.78
2023-04-19T04:02:04.472Z,100279.06
2023-04-19T04:02:46.374Z,100216.38
2023-04-19T04:03:28.711Z,100279.53
2023-04-19T04:04:14.641Z,100294.44
2023-04-19T04:04:56.817Z,100185.44
2023-04-19T04:05:39.193Z,100288.16
2023-04-19T04:06:20.962Z,100292.78
2023-04-19T04:07:02.820Z,100286.97
2023-04-19T04:07:44.392Z,100295.22
2023-04-19T04:08:26.222Z,100286.66
2023-04-19T04:09:07.969Z,100262.97
2023-04-19T04:09:50.205Z,100265.31
2023-04-19T04:10:31.982Z,100283.16
2023-04-19T04:11:13.892Z,100288.28
2023-04-19T04:11:55.705Z,100284.47
2023-04-19T04:12:37.400Z,100260.66
2023-04-19T04:13:20.464Z,100266.44
2023-04-19T04:14:11.717Z,100281.13
2023-04-19T04:14:54.235Z,100196.94
2023-04-19T04:15:36.587Z,100286.78
2023-04-19T04:16:18.790Z,100286.94
2023-04-19T04:17:00.555Z,100276.19
2023-04-19T04:17:42.205Z,100293.53
2023-04-19T04:18:23.972Z,100220.56
2023-04-19T04:19:05.658Z,100290.41
2023-04-19T04:19:50.084Z,100293.19
2023-04-19T04:20:32.607Z,100293.50
2023-04-19T04:21:20.442Z,100285.06
2023-04-19T04:22:02.736Z,100291.53
2023-04-19T04:22:50.522Z,100276.13
2023-04-19T04:23:35.081Z,100294.94
2023-04-19T04:24:20.097Z,100291.16
2023-04-19T04:25:23.164Z,100289.81
2023-04-19T04:26:06.193Z,100287.31
2023-04-19T04:27:03.171Z,100296.38
2023-04-19T04:27:51.597Z,100305.28
2023-04-19T04:28:34.698Z,100292.28
2023-04-19T04:29:18.610Z,100294.09
2023-04-19T04:30:01.579Z,100293.06
2023-04-19T04:30:45.073Z,100282.16
2023-04-19T04:31:27.957Z,100291.94
2023-04-19T04:32:13.254Z,100296.38
2023-04-19T04:32:58.106Z,100291.78
2023-04-19T04:33:41.559Z,100305.66
2023-04-19T04:34:25.796Z,100234.97
2023-04-19T04:35:13.785Z,100271.72
2023-04-19T04:36:01.493Z,100302.66
2023-04-19T04:36:47.423Z,100300.19
2023-04-19T04:37:31.154Z,100291.91
2023-04-19T04:38:23.970Z,100307.28
2023-04-19T04:39:10.202Z,100299.53
2023-04-19T04:39:51.812Z,100294.84
2023-04-19T04:40:33.527Z,100298.50
2023-04-19T04:41:16.537Z,100298.19
2023-04-19T04:41:59.560Z,100283.59
2023-04-19T04:42:42.813Z,100303.78
2023-04-19T04:43:25.955Z,100296.00
2023-04-19T04:44:12.630Z,100282.25
2023-04-19T04:44:57.902Z,100293.19
2023-04-19T04:45:39.853Z,100246.50
2023-04-19T04:46:21.556Z,100294.94
2023-04-19T04:47:03.203Z,100291.31
2023-04-19T04:47:49.409Z,100297.44
2023-04-19T04:48:31.703Z,100302.72
2023-04-19T04:49:13.384Z,100302.06
2023-04-19T04:49:57.056Z,100305.19
2023-04-19T04:50:38.860Z,100303.84
2023-04-19T04:51:20.832Z,100295.56
2023-04-19T04:52:06.427Z,100307.63
2023-04-19T04:52:53.718Z,100302.66
2023-04-19T04:53:43.230Z,100311.78
2023-04-19T04:54:24.950Z,100308.31
2023-04-19T04:55:07.351Z,100305.66
2023-04-19T04:55:54.028Z,100306.66
2023-04-19T04:56:36.860Z,100313.75
2023-04-19T04:57:18.514Z,100302.34
2023-04-19T04:58:00.522Z,100280.97
2023-04-19T04:58:50.438Z,100270.22
2023-04-19T04:59:40.891Z,100200.19
2023-04-19T05:00:23.394Z,100304.47
2023-04-19T05:01:14.572Z,100286.94
2023-04-19T05:01:56.903Z,100303.63
2023-04-19T05:02:38.619Z,100263.06
2023-04-19T05:03:20.946Z,100288.25
2023-04-19T05:04:09.011Z,100304.81
2023-04-19T05:04:50.864Z,100296.53
2023-04-19T05:05:33.684Z,100288.06
2023-04-19T05:06:15.404Z,100286.59
2023-04-19T05:06:57.234Z,100306.63
2023-04-19T05:07:41.959Z,100312.75
2023-04-19T05:08:25.602Z,100282.75
2023-04-19T05:09:08.107Z,100316.38
2023-04-19T05:09:51.000Z,100312.06
2023-04-19T05:10:38.602Z,100303.78
2023-04-19T05:11:20.782Z,100308.44
2023-04-19T05:12:02.527Z,100291.38
2023-04-19T05:12:45.273Z,100302.34
2023-04-19T05:13:27.181Z,100308.16
2023-04-19T05:14:09.979Z,100308.63
2023-04-19T05:14:51.892Z,100311.75
2023-04-19T05:15:33.509Z,100311.69
2023-04-19T05:16:15.465Z,100306.38
2023-04-19T05:16:59.839Z,100285.16
2023-04-19T05:17:43.118Z,100288.75
2023-04-19T05:18:24.860Z,100309.00
2023-04-19T05:19:06.545Z,100307.34
2023-04-19T05:19:53.927Z,100309.31
2023-04-19T05:20:35.686Z,100296.00
2023-04-19T05:21:29.855Z,100311.84
2023-04-19T05:22:12.620Z,100307.72
2023-04-19T05:22:58.573Z,100299.25
2023-04-19T05:23:40.295Z,100314.16
2023-04-19T05:24:22.417Z,100305.66
2023-04-19T05:25:06.374Z,100311.50
2023-04-19T05:25:48.069Z,100314.16
2023-04-19T05:26:29.769Z,100312.47
2023-04-19T05:27:14.183Z,100304.56
2023-04-19T05:27:56.426Z,100309.84
2023-04-19T05:28:38.876Z,100307.06
2023-04-19T05:29:25.501Z,100306.91
2023-04-19T05:30:11.045Z,100309.53
2023-04-19T05:30:56.472Z,100301.09
2023-04-19T05:31:41.070Z,100295.50
2023-04-19T05:32:36.350Z,100301.00
2023-04-19T05:33:19.452Z,100311.78
2023-04-19T05:34:01.136Z,100307.00
2023-04-19T05:34:42.909Z,100305.34
2023-04-19T05:35:28.213Z,100275.44
2023-04-19T05:36:10.184Z,100314.00
2023-04-19T05:36:51.896Z,100257.03
2023-04-19T05:37:33.602Z,100292.19
2023-04-19T05:38:15.534Z,100306.78
2023-04-19T05:38:57.222Z,100309.25
2023-04-19T05:39:39.896Z,100296.22
2023-04-19T05:40:24.283Z,100300.84
2023-04-19T05:41:06.510Z,100303.81
2023-04-19T05:41:48.353Z,100306.66
2023-04-19T05:42:30.892Z,100298.03
2023-04-19T05:43:12.681Z,100301.50
2023-04-19T05:43:54.827Z,100299.25
2023-04-19T05:44:36.529Z,100299.91
2023-04-19T05:45:21.893Z,100301.56
2023-04-19T05:46:03.834Z,100297.13
2023-04-19T05:46:45.476Z,100296.91
2023-04-19T05:47:30.787Z,100270.78
2023-04-19T05:48:25.470Z,100292.63
2023-04-19T05:49:45.179Z,100293.97
2023-04-19T05:50:59.673Z,100297.81
2023-04-19T05:52:05.095Z,100289.88
2023-04-19T05:52:52.860Z,100307.56
2023-04-19T05:53:34.713Z,100285.91
2023-04-19T05:54:17.483Z,100299.63
2023-04-19T05:55:01.828Z,100271.53
2023-04-19T05:55:45.552Z,100278.16
2023-04-19T05:56:27.303Z,100278.50
2023-04-19T05:57:09.136Z,100307.97
2023-04-19T05:57:51.308Z,100299.53
2023-04-19T05:58:33.022Z,100301.03
2023-04-19T05:59:14.833Z,100303.19
2023-04-19T05:59:56.752Z,100284.47
2023-04-19T06:00:42.917Z,100301.72
2023-04-19T06:01:27.650Z,100294.09
2023-04-19T06:02:09.594Z,100299.91
2023-04-19T06:02:51.440Z,100302.53
2023-04-19T06:03:36.479Z,100305.69
2023-04-19T06:04:18.772Z,100274.09
2023-04-19T06:05:08.493Z,100308.00
2023-04-19T06:05:52.154Z,100299.91
2023-04-19T06:06:33.813Z,100308.66
2023-04-19T06:07:30.235Z,100312.47
2023-04-19T06:08:16.359Z,100298.41
2023-04-19T06:08:58.032Z,100304.16
2023-04-19T06:09:40.612Z,100297.84
2023-04-19T06:10:23.521Z,100305.34
2023-04-19T06:11:15.849Z,100304.50
2023-04-19T06:12:05.216Z,100302.69
2023-04-19T06:12:46.886Z,100285.75
2023-04-19T06:13:28.577Z,100300.66
2023-04-19T06:14:11.264Z,100304.28
2023-04-19T06:14:53.055Z,100298.47
2023-04-19T06:15:35.037Z,100300.94
2023-04-19T06:16:16.737Z,100291.50
2023-04-19T06:16:58.416Z,100291.69
2023-04-19T06:17:40.677Z,100286.38
2023-04-19T06:18:22.568Z,100304.06
2023-04-19T06:19:04.195Z,100297.94
2023-04-19T06:19:45.763Z,100259.28
2023-04-19T06:20:27.419Z,100295.47
2023-04-19T06:21:09.120Z,100301.25
2023-04-19T06:21:51.372Z,100299.59
2023-04-19T06:22:33.024Z,100302.91
2023-04-19T06:23:15.053Z,100296.06
2023-04-19T06:23:56.987Z,100278.38
2023-04-19T06:24:38.649Z,100293.75
2023-04-19T06:25:20.718Z,100292.09
2023-04-19T06:26:02.315Z,100304.34
2023-04-19T06:26:43.948Z,100301.38
2023-04-19T06:27:25.664Z,100199.44
2023-04-19T06:28:07.277Z,100310.53
2023-04-19T06:28:49.048Z,100294.63
2023-04-19T06:29:30.813Z,100299.44
2023-04-19T06:30:15.382Z,100295.78
2023-04-19T06:30:57.015Z,100299.94
2023-04-19T06:31:38.715Z,100295.47
2023-04-19T06:32:20.435Z,100298.56
2023-04-19T06:33:02.102Z,100303.66
2023-04-19T06:33:43.899Z,100293.19
2023-04-19T06:34:25.472Z,100300.09
2023-04-19T06:35:07.553Z,100301.59
2023-04-19T06:35:49.243Z,100296.78
2023-04-19T06:36:30.909Z,100296.06
2023-04-19T06:37:12.659Z,100302.34
2023-04-19T06:37:54.386Z,100301.28
2023-04-19T06:38:36.531Z,100298.91
2023-04-19T06:39:18.276Z,100288.28
2023-04-19T06:40:00.774Z,100294.72
2023-04-19T06:40:42.531Z,100239.88
2023-04-19T06:41:24.175Z,100284.28
2023-04-19T06:42:06.447Z,100303.13
2023-04-19T06:42:48.730Z,100304.41
2023-04-19T06:43:30.406Z,100298.94
2023-04-19T06:44:13.428Z,100272.81
2023-04-19T06:44:57.073Z,100284.94
2023-04-19T06:45:38.811Z,100286.34
2023-04-19T06:46:20.685Z,100292.91
2023-04-19T06:47:02.644Z,100296.34
2023-04-19T06:47:44.484Z,100301.75
2023-04-19T06:48:28.936Z,100281.66
2023-04-19T06:49:10.544Z,100292.03
2023-04-19T06:49:52.276Z,100295.00
2023-04-19T06:50:34.145Z,100277.38
2023-04-19T06:51:15.766Z,100288.56
2023-04-19T06:52:00.290Z,100273.63
2023-04-19T06:52:42.296Z,100293.81
2023-04-19T06:53:23.914Z,100289.78
2023-04-19T06:54:06.281Z,100276.59
2023-04-19T06:54:51.618Z,100293.56
2023-04-19T06:55:33.373Z,100292.63
2023-04-19T06:56:15.036Z,100285.94
2023-04-19T06:56:56.984Z,100285.84
2023-04-19T06:57:38.637Z,100288.69
2023-04-19T06:58:20.403Z,100284.28
2023-04-19T06:59:02.003Z,100271.75
2023-04-19T06:59:44.238Z,100288.25
2023-04-19T07:00:26.356Z,100285.13
2023-04-19T07:01:08.038Z,100292.16
2023-04-19T07:01:49.749Z,100292.81
2023-04-19T07:02:31.743Z,100289.44
2023-04-19T07:03:13.600Z,100287.03
2023-04-19T07:03:57.333Z,100286.75
2023-04-19T07:04:39.544Z,100270.09
2023-04-19T07:05:21.350Z,100286.13
2023-04-19T07:06:03.139Z,100279.06
2023-04-19T07:06:48.671Z,100271.56
2023-04-19T07:07:30.392Z,100289.31
2023-04-19T07:08:12.095Z,100280.72
2023-04-19T07:08:53.700Z,100263.03
2023-04-19T07:09:35.385Z,100294.47
2023-04-19T07:10:17.534Z,100292.09
2023-04-19T07:10:59.228Z,100294.16
2023-04-19T07:11:41.046Z,100290.31
2023-04-19T07:12:22.746Z,100286.94
2023-04-19T07:13:04.392Z,100285.34
2023-04-19T07:13:46.029Z,100289.84
2023-04-19T07:14:27.648Z,100285.94
2023-04-19T07:15:09.960Z,100278.88
2023-04-19T07:15:51.598Z,100288.94
2023-04-19T07:16:33.616Z,100278.31
2023-04-19T07:17:15.430Z,100288.59
2023-04-19T07:17:57.048Z,100290.84
2023-04-19T07:18:39.888Z,100283.34
2023-04-19T07:19:22.674Z,100286.06
2023-04-19T07:20:06.401Z,100270.50
2023-04-19T07:20:49.348Z,100289.47
2023-04-19T07:21:33.462Z,100287.16
2023-04-19T07:22:15.558Z,100295.66
2023-04-19T07:22:59.952Z,100281.94
2023-04-19T07:23:42.603Z,100287.78
2023-04-19T07:24:25.476Z,100291.00
2023-04-19T07:25:07.687Z,100237.91
2023-04-19T07:25:49.278Z,100294.81
2023-04-19T07:26:31.052Z,100283.50
2023-04-19T07:27:14.294Z,100291.31
2023-04-19T07:27:56.534Z,100271.78
2023-04-19T07:28:39.925Z,100291.13
2023-04-19T07:29:22.339Z,100282.69
2023-04-19T07:30:04.268Z,100281.53
2023-04-19T07:30:46.247Z,100282.25
2023-04-19T07:31:28.262Z,100284.53
2023-04-19T07:32:10.260Z,100283.13
2023-04-19T07:32:53.602Z,100281.34
2023-04-19T07:33:35.648Z,100286.47
2023-04-19T07:34:17.849Z,100284.66
2023-04-19T07:34:59.782Z,100283.41
2023-04-19T07:35:41.539Z,100288.91
2023-04-19T07:36:29.054Z,100270.97
2023-04-19T07:37:20.126Z,100296.59
2023-04-19T07:38:05.375Z,100295.03
2023-04-19T07:38:50.280Z,100276.84
2023-04-19T07:39:31.985Z,100286.13
2023-04-19T07:40:13.987Z,100286.19
2023-04-19T07:40:55.688Z,100280.72
2023-04-19T07:41:37.838Z,100272.50
2023-04-19T07:42:19.718Z,100283.88
2023-04-19T07:43:01.316Z,100288.19
2023-04-19T07:43:43.023Z,100288.00
2023-04-19T07:44:24.647Z,100273.53
2023-04-19T07:45:07.101Z,100287.28
2023-04-19T07:45:48.770Z,100284.16
2023-04-19T07:46:30.599Z,100284.28
2023-04-19T07:47:12.225Z,100286.00
2023-04-19T07:47:53.850Z,100279.88
2023-04-19T07:48:35.649Z,100286.28
2023-04-19T07:49:17.368Z,100267.03
2023-04-19T07:49:59.040Z,100276.66
2023-04-19T07:50:40.786Z,100273.53
2023-04-19T07:51:24.510Z,100273.72
2023-04-19T07:52:08.929Z,100276.38
2023-04-19T07:52:50.821Z,100272.47
2023-04-19T07:53:32.482Z,100266.41
2023-04-19T07:54:16.465Z,100273.38
2023-04-19T07:54:58.264Z,100279.34
2023-04-19T07:55:39.813Z,100271.28
2023-04-19T07:56:22.627Z,100277.22
2023-04-19T07:57:04.249Z,100272.94
2023-04-19T07:57:48.244Z,100244.88
2023-04-19T07:58:29.814Z,100219.84
2023-04-19T07:59:11.420Z,100269.59
2023-04-19T07:59:57.771Z,100265.38
2023-04-19T08:00:39.393Z,100271.03
2023-04-19T08:01:21.176Z,100246.47
2023-04-19T08:02:02.929Z,100265.88
2023-04-19T08:02:48.676Z,100267.41
2023-04-19T08:03:32.138Z,100264.56
2023-04-19T08:04:14.201Z,100253.03
2023-04-19T08:04:57.894Z,100275.91
2023-04-19T08:05:39.766Z,100270.72
2023-04-19T08:06:21.814Z,100259.41
2023-04-19T08:07:04.775Z,100267.53
2023-04-19T08:07:46.462Z,100265.16
2023-04-19T08:08:28.300Z,100255.50
2023-04-19T08:09:09.997Z,100272.34
2023-04-19T08:09:51.678Z,100264.19
2023-04-19T08:10:33.518Z,100268.50
2023-04-19T08:11:15.373Z,100255.75
2023-04-19T08:11:57.730Z,100264.88
2023-04-19T08:12:50.422Z,100260.00